Time;durP1;ratioP1;P1;durP2;ratioP2;P2;SDS_P1;SDS_P2;PMS_P1;PMS_P2;Temp;Humidity;BMP_temperature;BMP_pressure;BME280_temperature;BME280_humidity;BME280_pressure;Samples;Min_cycle;Max_cycle;Signal;HPM_P1;HPM_P2
2022/11/21 00:01:00;;;;;;;1.77;0.80;;;6.10;80.30;;;;;;4953838;29;20236;-65
2022/11/21 00:03:27;;;;;;;2.15;0.68;;;6.10;80.10;;;;;;4954222;29;20806;-66
2022/11/21 00:05:54;;;;;;;1.55;0.68;;;6.10;80.70;;;;;;4953866;28;20193;-66
2022/11/21 00:08:23;;;;;;;1.70;0.70;;;6.00;80.40;;;;;;4954207;29;20229;-66
2022/11/21 00:10:50;;;;;;;2.88;0.77;;;6.00;80.70;;;;;;4953618;29;20207;-65
2022/11/21 00:13:20;;;;;;;1.85;0.70;;;6.00;81.10;;;;;;4954190;29;20372;-65
2022/11/21 00:15:48;;;;;;;1.70;0.65;;;5.90;81.10;;;;;;4953911;29;20190;-65
2022/11/21 00:18:16;;;;;;;2.20;0.93;;;6.00;81.50;;;;;;4954175;29;20225;-65
2022/11/21 00:20:43;;;;;;;3.35;0.70;;;6.00;81.40;;;;;;4953608;29;20281;-65
2022/11/21 00:23:11;;;;;;;1.77;0.75;;;6.00;81.10;;;;;;4953938;29;20280;-66
2022/11/21 00:25:40;;;;;;;2.55;0.93;;;6.00;81.20;;;;;;4953839;29;20190;-65
2022/11/21 00:28:08;;;;;;;1.90;0.70;;;6.00;81.00;;;;;;4953907;29;20193;-65
2022/11/21 00:30:35;;;;;;;1.60;0.60;;;6.00;81.30;;;;;;4953524;29;20672;-65
2022/11/21 00:33:02;;;;;;;1.70;0.70;;;5.90;81.20;;;;;;4953755;29;20522;-66
2022/11/21 00:35:31;;;;;;;2.70;0.75;;;5.90;81.00;;;;;;4953543;29;20221;-65
2022/11/21 00:37:58;;;;;;;1.55;0.68;;;5.90;80.90;;;;;;4953625;29;20285;-67
2022/11/21 00:40:25;;;;;;;1.92;0.80;;;6.00;80.70;;;;;;4953376;29;20217;-65
2022/11/21 00:42:54;;;;;;;2.70;0.80;;;6.00;80.90;;;;;;4953826;29;20509;-65
2022/11/21 00:45:21;;;;;;;1.90;0.80;;;6.00;80.60;;;;;;4953546;29;20212;-65
2022/11/21 00:47:49;;;;;;;1.50;0.60;;;6.00;80.90;;;;;;4954073;29;20202;-66
2022/11/21 00:50:16;;;;;;;1.80;0.77;;;6.10;81.00;;;;;;4953127;29;20277;-67
2022/11/21 00:52:43;;;;;;;2.55;0.85;;;6.20;81.00;;;;;;4953683;29;20197;-67
2022/11/21 00:55:11;;;;;;;3.63;1.00;;;6.20;80.70;;;;;;4953623;29;20225;-65
2022/11/21 00:57:38;;;;;;;1.60;0.70;;;6.30;80.50;;;;;;4953885;28;20301;-66
2022/11/21 01:00:08;;;;;;;1.60;0.80;;;6.30;80.40;;;;;;4953261;29;20282;-66
2022/11/21 01:02:36;;;;;;;1.50;0.70;;;6.30;80.20;;;;;;4953892;29;20198;-66
2022/11/21 01:05:03;;;;;;;1.80;0.90;;;6.30;80.30;;;;;;4953146;29;20276;-66
2022/11/21 01:07:31;;;;;;;2.30;0.68;;;6.40;80.30;;;;;;4953342;29;20272;-66
2022/11/21 01:09:58;;;;;;;1.80;0.60;;;6.40;79.70;;;;;;4953383;29;20244;-66
2022/11/21 01:12:25;;;;;;;2.03;0.93;;;6.40;80.00;;;;;;4953457;29;20197;-66
2022/11/21 01:14:53;;;;;;;1.80;0.75;;;6.40;80.00;;;;;;4952976;29;20205;-66
2022/11/21 01:17:21;;;;;;;1.75;0.63;;;6.50;80.00;;;;;;4953461;28;20280;-66
2022/11/21 01:19:49;;;;;;;1.70;0.70;;;6.50;79.70;;;;;;4956339;29;20222;-66
2022/11/21 01:22:16;;;;;;;3.10;0.98;;;6.50;79.40;;;;;;4957271;29;20276;-66
2022/11/21 01:24:43;;;;;;;2.10;1.00;;;6.60;79.90;;;;;;4956913;29;20198;-66
2022/11/21 01:27:10;;;;;;;1.90;0.80;;;6.60;78.80;;;;;;4956694;29;20185;-66
2022/11/21 01:29:37;;;;;;;1.85;0.95;;;6.60;78.60;;;;;;4956672;29;20273;-66
2022/11/21 01:32:05;;;;;;;1.60;0.70;;;6.60;78.80;;;;;;4956979;29;20248;-66
2022/11/21 01:34:34;;;;;;;1.80;0.85;;;6.60;78.60;;;;;;4956651;29;20229;-66
2022/11/21 01:37:01;;;;;;;1.80;0.80;;;6.60;78.70;;;;;;4956990;29;20237;-66
2022/11/21 01:39:28;;;;;;;1.80;0.80;;;6.70;78.70;;;;;;4956570;29;20571;-66
2022/11/21 01:41:56;;;;;;;4.72;0.90;;;6.60;78.70;;;;;;4956731;29;20190;-66
2022/11/21 01:44:29;;;;;;;2.15;0.90;;;6.60;78.60;;;;;;4956539;29;20186;-66
2022/11/21 01:46:56;;;;;;;1.73;0.80;;;6.60;78.20;;;;;;4956864;29;20554;-66
2022/11/21 01:49:27;;;;;;;2.03;0.70;;;6.60;77.70;;;;;;4956461;29;20225;-67
2022/11/21 01:52:03;;;;;;;2.63;0.90;;;6.50;77.90;;;;;;4956794;29;20241;-66
2022/11/21 01:54:34;;;;;;;1.83;0.77;;;6.60;78.20;;;;;;4956178;29;20189;-66
2022/11/21 01:57:05;;;;;;;2.10;1.08;;;6.60;78.10;;;;;;4956749;29;20197;-66
2022/11/21 01:59:37;;;;;;;1.90;0.80;;;6.60;77.90;;;;;;4956193;29;20241;-66
2022/11/21 02:02:06;;;;;;;3.22;0.98;;;6.60;77.90;;;;;;4956632;29;20198;-66
2022/11/21 02:04:35;;;;;;;2.30;0.93;;;6.60;78.00;;;;;;4956253;29;20221;-66
2022/11/21 02:07:07;;;;;;;1.95;0.95;;;6.60;77.80;;;;;;4956141;29;20611;-66
2022/11/21 02:09:39;;;;;;;2.20;0.80;;;6.70;77.80;;;;;;4956433;29;20600;-66
2022/11/21 02:12:13;;;;;;;2.92;1.10;;;6.70;78.10;;;;;;4956835;29;20198;-66
2022/11/21 02:14:43;;;;;;;2.40;1.00;;;6.60;78.20;;;;;;4956039;29;20212;-66
2022/11/21 02:17:11;;;;;;;3.00;0.80;;;6.60;78.60;;;;;;4956212;29;20201;-67
2022/11/21 02:19:45;;;;;;;1.90;1.40;;;6.60;78.80;;;;;;4955891;29;20292;-66
2022/11/21 02:22:23;;;;;;;2.60;0.90;;;6.60;78.80;;;;;;4956436;29;20551;-66
2022/11/21 02:25:00;;;;;;;2.28;1.08;;;6.60;78.90;;;;;;4956073;29;20264;-67
2022/11/21 02:27:28;;;;;;;2.40;1.02;;;6.60;79.00;;;;;;4956017;29;20719;-66
2022/11/21 02:29:56;;;;;;;2.22;0.70;;;6.60;78.80;;;;;;4954436;28;20273;-66
2022/11/21 02:32:25;;;;;;;1.70;0.90;;;6.50;78.50;;;;;;4955855;29;20201;-67
2022/11/21 02:34:52;;;;;;;2.10;0.90;;;6.60;78.70;;;;;;4955154;29;20198;-66
2022/11/21 02:37:19;;;;;;;3.20;0.80;;;6.50;78.40;;;;;;4955948;29;20198;-66
2022/11/21 02:39:48;;;;;;;2.53;1.00;;;6.50;78.00;;;;;;4955493;29;20221;-66
2022/11/21 02:42:24;;;;;;;3.28;1.05;;;6.50;78.00;;;;;;4955355;29;20276;-67
2022/11/21 02:44:57;;;;;;;2.67;0.90;;;6.50;78.00;;;;;;4955341;29;20228;-66
2022/11/21 02:47:25;;;;;;;2.40;0.80;;;6.50;77.50;;;;;;4956018;29;20641;-65
2022/11/21 02:50:00;;;;;;;2.00;0.98;;;6.50;77.40;;;;;;4955754;29;20193;-65
2022/11/21 02:52:27;;;;;;;2.53;1.17;;;6.50;77.20;;;;;;4955394;29;20651;-65
2022/11/21 02:54:54;;;;;;;1.80;0.70;;;6.50;76.90;;;;;;4955137;29;20186;-65
2022/11/21 02:57:23;;;;;;;2.00;0.90;;;6.40;76.40;;;;;;4955419;29;20189;-65
2022/11/21 02:59:50;;;;;;;2.85;0.90;;;6.40;76.70;;;;;;4955390;29;20221;-65
2022/11/21 03:02:18;;;;;;;7.78;1.10;;;6.40;76.90;;;;;;4955283;29;20205;-65
2022/11/21 03:04:45;;;;;;;3.28;1.05;;;6.40;76.50;;;;;;4955216;29;20308;-65
2022/11/21 03:07:13;;;;;;;2.63;0.93;;;6.40;76.30;;;;;;4955133;29;20197;-66
2022/11/21 03:09:40;;;;;;;2.20;0.90;;;6.40;76.10;;;;;;4955693;29;20201;-66
2022/11/21 03:12:08;;;;;;;5.00;1.20;;;6.40;75.50;;;;;;4954867;29;20661;-65
2022/11/21 03:14:37;;;;;;;3.65;1.08;;;6.30;75.10;;;;;;4955518;29;20198;-65
2022/11/21 03:17:05;;;;;;;5.30;1.15;;;6.30;74.90;;;;;;4955002;29;20226;-65
2022/11/21 03:19:32;;;;;;;4.20;1.00;;;6.30;74.60;;;;;;4955013;29;20317;-65
2022/11/21 03:21:59;;;;;;;2.22;1.25;;;6.30;74.60;;;;;;4954661;29;20198;-65
2022/11/21 03:24:27;;;;;;;3.38;1.20;;;6.30;74.20;;;;;;4954426;29;20194;-65
2022/11/21 03:26:54;;;;;;;2.33;0.93;;;6.30;73.90;;;;;;4954416;29;20186;-65
2022/11/21 03:29:21;;;;;;;2.10;0.90;;;6.30;73.90;;;;;;4954904;29;20204;-66
2022/11/21 03:31:50;;;;;;;2.60;0.90;;;6.20;73.50;;;;;;4954490;29;20190;-65
2022/11/21 03:34:17;;;;;;;3.75;1.20;;;6.20;73.40;;;;;;4954913;29;20204;-65
2022/11/21 03:36:45;;;;;;;4.28;1.13;;;6.30;73.30;;;;;;4954563;29;20222;-66
2022/11/21 03:39:12;;;;;;;2.00;1.08;;;6.30;72.80;;;;;;4955053;29;20221;-66
2022/11/21 03:41:39;;;;;;;2.80;1.05;;;6.30;72.60;;;;;;4954194;28;20186;-66
2022/11/21 03:44:09;;;;;;;3.20;1.23;;;6.30;72.40;;;;;;4954589;29;20256;-66
2022/11/21 03:46:38;;;;;;;4.05;1.00;;;6.40;72.60;;;;;;4954291;29;20182;-65
2022/11/21 03:49:10;;;;;;;1.92;0.85;;;6.40;72.20;;;;;;4954802;29;20194;-66
2022/11/21 03:51:38;;;;;;;4.25;1.27;;;6.40;71.50;;;;;;4954467;29;20657;-65
2022/11/21 03:54:06;;;;;;;4.65;1.30;;;6.50;71.60;;;;;;4954619;29;20626;-65
2022/11/21 03:56:34;;;;;;;4.32;1.20;;;6.50;71.90;;;;;;4954490;29;20213;-65
2022/11/21 03:59:01;;;;;;;2.42;1.10;;;6.50;71.70;;;;;;4954484;29;20723;-65
2022/11/21 04:01:29;;;;;;;3.90;1.30;;;6.50;71.30;;;;;;4954276;29;20194;-66
2022/11/21 04:03:56;;;;;;;2.80;1.10;;;6.60;71.40;;;;;;4954574;29;20260;-65
2022/11/21 04:06:25;;;;;;;4.10;1.15;;;6.60;71.40;;;;;;4954334;29;20201;-65
2022/11/21 04:08:53;;;;;;;6.70;1.02;;;6.70;71.80;;;;;;4954487;29;20197;-65
2022/11/21 04:11:22;;;;;;;4.75;1.17;;;6.70;72.80;;;;;;4954380;29;20186;-65
2022/11/21 04:13:49;;;;;;;3.20;1.10;;;6.70;73.50;;;;;;4954586;29;20220;-65
2022/11/21 04:16:18;;;;;;;3.38;1.23;;;6.70;74.70;;;;;;4953939;29;20276;-66
2022/11/21 04:18:45;;;;;;;3.00;1.05;;;6.70;75.70;;;;;;4954323;29;20221;-66
2022/11/21 04:21:13;;;;;;;4.30;0.93;;;6.70;76.50;;;;;;4954187;29;20619;-67
2022/11/21 04:23:43;;;;;;;3.47;3.08;;;6.80;76.90;;;;;;4954491;29;20198;-65
2022/11/21 04:26:11;;;;;;;2.10;0.80;;;6.70;77.20;;;;;;4953616;29;20200;-66
2022/11/21 04:28:38;;;;;;;2.30;0.93;;;6.70;77.50;;;;;;4954467;29;20668;-66
2022/11/21 04:31:07;;;;;;;3.78;1.00;;;6.70;77.50;;;;;;4954193;29;20206;-66
2022/11/21 04:33:35;;;;;;;2.75;0.80;;;6.80;77.90;;;;;;4954353;29;20688;-66
2022/11/21 04:36:02;;;;;;;3.22;0.80;;;6.80;77.50;;;;;;4955246;28;20555;-65
2022/11/21 04:38:29;;;;;;;2.42;1.10;;;6.80;77.70;;;;;;4955495;28;20671;-66
2022/11/21 04:40:58;;;;;;;3.15;1.10;;;6.80;77.70;;;;;;4953671;29;20194;-66
2022/11/21 04:43:30;;;;;;;6.82;1.65;;;6.80;77.20;;;;;;4953405;29;20328;-66
2022/11/21 04:45:57;;;;;;;7.85;1.50;;;6.90;77.20;;;;;;4953515;29;20217;-66
2022/11/21 04:48:25;;;;;;;2.00;0.80;;;6.90;76.90;;;;;;4953832;29;20240;-66
2022/11/21 04:50:52;;;;;;;3.65;1.67;;;6.90;76.90;;;;;;4954014;29;20566;-66
2022/11/21 04:53:19;;;;;;;3.85;1.30;;;6.80;76.90;;;;;;4954834;28;20224;-66
2022/11/21 04:55:47;;;;;;;5.45;1.48;;;6.80;76.90;;;;;;4957728;29;20200;-66
2022/11/21 04:58:17;;;;;;;2.63;0.90;;;6.70;76.60;;;;;;4957851;29;20199;-66
2022/11/21 05:00:45;;;;;;;2.60;0.90;;;6.60;76.90;;;;;;4958056;29;20186;-66
2022/11/21 05:03:17;;;;;;;2.10;0.90;;;6.50;77.80;;;;;;4957757;29;20221;-67
2022/11/21 05:05:45;;;;;;;4.07;1.23;;;6.40;77.80;;;;;;4943354;29;20230;-66
2022/11/21 05:08:12;;;;;;;2.42;1.05;;;6.40;78.00;;;;;;4938973;29;20258;-67
2022/11/21 05:13:23;;;;;;;2.22;1.27;;;6.30;78.50;;;;;;4937966;29;20546;-68
2022/11/21 05:15:56;;;;;;;2.80;0.80;;;6.30;78.40;;;;;;4938712;29;20198;-66
2022/11/21 05:18:24;;;;;;;3.15;1.20;;;6.30;78.60;;;;;;4938653;29;20202;-66
2022/11/21 05:20:52;;;;;;;2.75;1.27;;;6.20;78.90;;;;;;4938156;29;20246;-66
2022/11/21 05:23:19;;;;;;;3.40;1.30;;;6.30;79.20;;;;;;4938601;29;20195;-66
2022/11/21 05:25:47;;;;;;;3.13;1.13;;;6.30;79.50;;;;;;4938442;29;20198;-66
2022/11/21 05:28:14;;;;;;;2.72;1.05;;;6.30;79.60;;;;;;4938188;29;20266;-67
2022/11/21 05:30:44;;;;;;;2.85;1.15;;;6.20;79.10;;;;;;4938533;29;20286;-66
2022/11/21 05:33:12;;;;;;;2.30;1.10;;;6.30;79.00;;;;;;4938528;29;20594;-66
2022/11/21 05:35:40;;;;;;;2.13;0.85;;;6.30;79.20;;;;;;4938154;29;20194;-66
2022/11/21 05:38:07;;;;;;;3.63;1.42;;;6.30;79.20;;;;;;4938372;29;20282;-66
2022/11/21 05:40:35;;;;;;;1.70;0.70;;;6.30;79.60;;;;;;4937467;29;20273;-66
2022/11/21 05:45:51;;;;;;;1.77;0.60;;;6.40;79.60;;;;;;4937767;29;20262;-66
2022/11/21 05:48:23;;;;;;;2.33;0.85;;;6.40;79.70;;;;;;4919767;29;20658;-67
2022/11/21 05:50:50;;;;;;;2.08;0.90;;;6.40;81.00;;;;;;4935470;29;21095;-66
2022/11/21 05:53:18;;;;;;;1.90;0.75;;;6.40;82.20;;;;;;4935703;29;20191;-66
2022/11/21 05:55:46;;;;;;;4.53;1.30;;;6.40;82.70;;;;;;4935294;29;20281;-66
2022/11/21 05:58:13;;;;;;;3.78;0.85;;;6.40;83.30;;;;;;4934704;29;20233;-67
2022/11/21 06:00:41;;;;;;;1.70;0.70;;;6.50;84.50;;;;;;4935288;29;20634;-66
2022/11/21 06:03:31;;;;;;;1.70;0.70;;;6.50;84.90;;;;;;4940273;29;20229;-66
2022/11/21 06:06:00;;;;;;;5.72;0.98;;;6.50;85.70;;;;;;4954354;29;20201;-66
2022/11/21 06:08:29;;;;;;;2.90;0.80;;;6.50;85.40;;;;;;4954391;29;20283;-66
2022/11/21 06:10:57;;;;;;;1.83;0.95;;;6.50;85.10;;;;;;4954576;29;20233;-66
2022/11/21 06:13:25;;;;;;;2.00;0.85;;;6.50;85.10;;;;;;4950212;29;20320;-66
2022/11/21 06:15:55;;;;;;;1.75;0.75;;;6.50;85.00;;;;;;4954307;29;20197;-66
2022/11/21 06:18:25;;;;;;;1.60;0.70;;;6.50;84.70;;;;;;4954694;29;20719;-66
2022/11/21 06:20:52;;;;;;;1.70;0.70;;;6.50;84.50;;;;;;4954247;29;20239;-66
2022/11/21 06:23:24;;;;;;;2.65;0.60;;;6.50;84.50;;;;;;4954325;29;20186;-66
2022/11/21 06:26:00;;;;;;;1.80;0.80;;;6.50;84.30;;;;;;4954395;29;20194;-66
2022/11/21 06:28:32;;;;;;;2.45;0.88;;;6.50;84.30;;;;;;4954650;29;20204;-66
2022/11/21 06:31:03;;;;;;;3.10;0.80;;;6.50;84.70;;;;;;4954762;29;20194;-66
2022/11/21 06:33:32;;;;;;;1.85;0.60;;;6.50;85.10;;;;;;4953239;29;20332;-66
2022/11/21 06:36:03;;;;;;;2.80;0.95;;;6.50;85.30;;;;;;4954481;29;20198;-66
2022/11/21 06:38:30;;;;;;;1.50;0.60;;;6.50;85.70;;;;;;4953912;29;20190;-67
2022/11/21 06:40:57;;;;;;;1.70;0.60;;;6.50;85.60;;;;;;4953401;29;20582;-66
2022/11/21 06:43:24;;;;;;;1.80;0.68;;;6.50;85.70;;;;;;4953667;29;20668;-66
2022/11/21 06:45:52;;;;;;;1.80;0.70;;;6.50;85.30;;;;;;4955017;29;20291;-66
2022/11/21 06:48:19;;;;;;;1.67;0.70;;;6.30;84.40;;;;;;4954640;29;20221;-66
2022/11/21 06:50:47;;;;;;;2.15;0.52;;;6.20;83.90;;;;;;4953922;29;20190;-67
2022/11/21 06:53:14;;;;;;;1.60;0.60;;;6.10;83.70;;;;;;4948962;29;20217;-66
2022/11/21 06:55:41;;;;;;;1.70;0.73;;;6.10;83.90;;;;;;4953748;29;20211;-66
2022/11/21 06:58:08;;;;;;;2.35;0.70;;;6.10;84.50;;;;;;4955845;29;20186;-67
2022/11/21 07:00:35;;;;;;;2.13;1.00;;;6.10;83.70;;;;;;4956355;29;20213;-66
2022/11/21 07:03:03;;;;;;;4.60;1.10;;;6.00;83.40;;;;;;4955332;28;20205;-66
2022/11/21 07:05:31;;;;;;;2.30;1.15;;;6.00;83.40;;;;;;4956235;29;20269;-66
2022/11/21 07:08:00;;;;;;;1.90;0.90;;;6.00;83.10;;;;;;4955560;29;20214;-66
2022/11/21 07:10:28;;;;;;;3.10;0.73;;;6.00;82.90;;;;;;4956083;29;20205;-66
2022/11/21 07:15:42;;;;;;;2.53;0.75;;;5.90;83.70;;;;;;4955591;28;20196;-66
2022/11/21 07:18:09;;;;;;;3.88;0.77;;;5.90;83.70;;;;;;4955895;29;20197;-67
2022/11/21 07:20:35;;;;;;;2.38;1.35;;;5.90;84.90;;;;;;4956172;29;20632;-66
2022/11/21 07:23:04;;;;;;;3.78;2.47;;;5.90;83.90;;;;;;4956165;29;20581;-66
2022/11/21 07:25:31;;;;;;;3.33;2.00;;;5.70;83.90;;;;;;4956004;29;20194;-66
2022/11/21 07:27:58;;;;;;;2.63;1.27;;;5.70;84.80;;;;;;4955933;29;20202;-66
2022/11/21 07:30:26;;;;;;;1.80;0.80;;;5.60;84.90;;;;;;4955991;29;20548;-66
2022/11/21 07:32:56;;;;;;;2.53;1.00;;;5.60;85.30;;;;;;4955717;29;20206;-66
2022/11/21 07:35:23;;;;;;;3.22;1.60;;;5.60;85.40;;;;;;4955843;29;20225;-66
2022/11/21 07:37:50;;;;;;;3.30;1.30;;;5.60;85.40;;;;;;4955853;29;20627;-66
2022/11/21 07:40:19;;;;;;;4.95;3.25;;;5.60;86.00;;;;;;4955494;29;20225;-66
2022/11/21 07:42:46;;;;;;;3.03;1.45;;;5.60;86.80;;;;;;4955489;29;20205;-66
2022/11/21 07:45:14;;;;;;;2.50;1.40;;;5.50;86.60;;;;;;4955648;29;20696;-66
2022/11/21 07:47:41;;;;;;;2.47;0.90;;;5.30;87.30;;;;;;4955436;29;20213;-66
2022/11/21 07:50:10;;;;;;;5.10;0.70;;;5.10;88.10;;;;;;4955621;29;20629;-66
2022/11/21 07:52:38;;;;;;;1.50;0.50;;;5.10;89.30;;;;;;4955569;29;20194;-66
2022/11/21 07:55:09;;;;;;;1.92;0.70;;;5.00;90.30;;;;;;4955602;29;20198;-66
2022/11/21 07:57:37;;;;;;;3.33;0.93;;;4.90;90.70;;;;;;4955532;29;20194;-66
2022/11/21 08:00:05;;;;;;;3.13;1.77;;;4.90;91.10;;;;;;4955396;29;20224;-65
2022/11/21 08:02:32;;;;;;;2.03;0.98;;;4.90;91.20;;;;;;4955277;29;20190;-65
2022/11/21 08:04:59;;;;;;;1.70;0.70;;;4.80;91.10;;;;;;4936272;29;20198;-65
2022/11/21 08:07:26;;;;;;;2.47;1.35;;;4.70;91.50;;;;;;4936199;29;20194;-66
2022/11/21 08:09:53;;;;;;;1.70;0.80;;;4.80;92.10;;;;;;4936099;29;20262;-65
2022/11/21 08:12:20;;;;;;;2.92;0.80;;;4.90;92.00;;;;;;4935913;29;20650;-66
2022/11/21 08:14:48;;;;;;;1.80;0.82;;;5.00;92.10;;;;;;4935709;29;20716;-66
2022/11/21 08:17:17;;;;;;;2.70;1.55;;;5.00;92.50;;;;;;4936081;29;20285;-66
2022/11/21 08:19:44;;;;;;;3.45;2.17;;;5.10;92.80;;;;;;4935410;29;20257;-66
2022/11/21 08:22:11;;;;;;;2.20;1.10;;;5.30;92.80;;;;;;4935733;29;20191;-66
2022/11/21 08:24:38;;;;;;;5.50;3.70;;;5.40;91.20;;;;;;4935583;29;20195;-67
2022/11/21 08:27:05;;;;;;;4.95;2.10;;;5.40;91.00;;;;;;4935674;29;20198;-66
2022/11/21 08:29:32;;;;;;;2.22;1.15;;;5.60;91.00;;;;;;4935979;29;20274;-66
2022/11/21 08:32:00;;;;;;;1.70;0.80;;;6.20;92.30;;;;;;4935654;29;20250;-66
2022/11/21 08:34:30;;;;;;;1.90;1.00;;;7.10;91.40;;;;;;4935532;29;20221;-67
2022/11/21 08:36:58;;;;;;;5.10;1.45;;;8.10;90.20;;;;;;4935772;29;20190;-66
2022/11/21 08:39:26;;;;;;;2.03;1.00;;;9.10;84.90;;;;;;4935306;29;20299;-66
2022/11/21 08:42:02;;;;;;;3.45;1.48;;;10.00;79.90;;;;;;4935618;29;20289;-66
2022/11/21 08:44:29;;;;;;;2.25;1.02;;;10.60;74.90;;;;;;4935603;29;20197;-66
2022/11/21 08:46:57;;;;;;;9.75;5.20;;;11.50;74.10;;;;;;4935760;29;20194;-67
2022/11/21 08:49:25;;;;;;;3.92;2.40;;;12.30;68.10;;;;;;4935330;29;20242;-67
2022/11/21 08:51:52;;;;;;;2.95;1.48;;;12.70;66.50;;;;;;4935640;29;20190;-66
2022/11/21 08:54:21;;;;;;;2.67;1.50;;;12.70;62.70;;;;;;4935613;29;20199;-67
2022/11/21 08:56:48;;;;;;;3.95;1.52;;;12.80;60.20;;;;;;4935224;29;20197;-66
2022/11/21 08:59:15;;;;;;;6.43;1.60;;;12.90;61.30;;;;;;4935512;29;20192;-66
2022/11/21 09:01:42;;;;;;;2.55;1.48;;;13.30;59.40;;;;;;4935229;29;20273;-67
2022/11/21 09:04:10;;;;;;;3.17;1.50;;;13.60;61.30;;;;;;4947779;29;20634;-67
2022/11/21 09:06:38;;;;;;;4.00;1.75;;;13.70;57.90;;;;;;4954587;29;20201;-66
2022/11/21 09:09:06;;;;;;;5.00;1.40;;;13.30;57.10;;;;;;4954720;29;20275;-66
2022/11/21 09:11:33;;;;;;;4.40;1.10;;;13.40;58.30;;;;;;4954417;29;20498;-66
2022/11/21 09:19:29;;;;;;;2.83;1.00;;;14.50;55.20;;;;;;4954318;29;20463;-67
2022/11/21 09:21:57;;;;;;;2.10;1.10;;;14.60;53.10;;;;;;4954416;29;20911;-66
2022/11/21 09:24:24;;;;;;;1.83;0.80;;;13.90;52.40;;;;;;4954420;29;20280;-67
2022/11/21 09:26:51;;;;;;;2.43;0.97;;;13.30;53.20;;;;;;4954316;29;20456;-66
2022/11/21 09:29:18;;;;;;;3.50;1.98;;;12.70;53.80;;;;;;4953941;29;20805;-66
2022/11/21 09:31:45;;;;;;;4.50;2.15;;;11.90;55.00;;;;;;4954298;29;20231;-66
2022/11/21 09:34:12;;;;;;;2.47;1.33;;;11.30;56.30;;;;;;4953939;29;20190;-66
2022/11/21 09:36:39;;;;;;;3.13;1.10;;;10.80;57.50;;;;;;4954213;29;20290;-66
2022/11/21 09:39:07;;;;;;;2.53;1.25;;;10.50;59.10;;;;;;4954926;28;20604;-67
2022/11/21 09:41:51;;;;;;;2.53;1.10;;;10.30;60.40;;;;;;4957602;29;20229;-66
2022/11/21 09:44:43;;;;;;;3.05;1.40;;;10.00;61.30;;;;;;4957449;29;20201;-66
2022/11/21 09:47:21;;;;;;;2.42;1.27;;;9.90;63.70;;;;;;4957524;29;20197;-66
2022/11/21 09:49:52;;;;;;;2.63;1.75;;;10.00;63.50;;;;;;4957661;29;20563;-66
2022/11/21 09:52:24;;;;;;;2.33;1.27;;;10.20;63.10;;;;;;4957651;29;20257;-66
2022/11/21 09:54:57;;;;;;;3.15;1.65;;;10.40;62.60;;;;;;4957151;29;20214;-66
2022/11/21 09:57:26;;;;;;;3.30;1.42;;;10.40;61.70;;;;;;4957454;29;20201;-66
2022/11/21 09:59:54;;;;;;;4.63;2.22;;;10.30;61.10;;;;;;4957187;29;20261;-66
2022/11/21 10:02:23;;;;;;;2.67;1.13;;;10.20;62.90;;;;;;4957112;29;20240;-66
2022/11/21 10:04:52;;;;;;;2.75;1.30;;;10.90;64.10;;;;;;4957186;29;20253;-66
2022/11/21 10:07:25;;;;;;;2.00;1.25;;;12.00;61.60;;;;;;4956865;29;20199;-66
2022/11/21 10:10:19;;;;;;;2.53;1.15;;;13.40;57.90;;;;;;4957120;29;20197;-66
2022/11/21 10:13:02;;;;;;;3.40;1.00;;;14.50;54.60;;;;;;4957042;29;20559;-66
2022/11/21 10:15:46;;;;;;;2.80;1.00;;;15.00;51.00;;;;;;4957319;29;20957;-67
2022/11/21 10:18:55;;;;;;;3.80;1.00;;;14.80;51.10;;;;;;4957482;29;20450;-67
2022/11/21 10:21:38;;;;;;;2.10;1.00;;;14.50;51.70;;;;;;4957166;29;20520;-66
2022/11/21 10:24:20;;;;;;;2.07;0.80;;;14.20;52.30;;;;;;4956941;29;20982;-67
2022/11/21 10:26:52;;;;;;;2.20;1.13;;;14.10;53.00;;;;;;4956981;29;20505;-66
2022/11/21 10:29:23;;;;;;;3.70;1.83;;;13.80;51.30;;;;;;4956924;29;20445;-67
2022/11/21 10:31:54;;;;;;;3.97;1.20;;;13.30;51.30;;;;;;4957030;29;20467;-67
2022/11/21 10:34:26;;;;;;;2.13;0.87;;;12.90;52.10;;;;;;4956391;29;20428;-66
2022/11/21 10:36:57;;;;;;;2.20;1.00;;;12.50;53.40;;;;;;4956843;29;20449;-67
2022/11/21 10:39:32;;;;;;;3.00;1.20;;;12.50;54.00;;;;;;4956978;29;20437;-66
2022/11/21 10:42:05;;;;;;;4.10;1.10;;;12.50;54.00;;;;;;4956587;29;20548;-67
2022/11/21 10:47:26;;;;;;;2.63;1.03;;;11.90;54.80;;;;;;4956905;29;20439;-66
2022/11/21 10:49:59;;;;;;;2.45;0.95;;;11.50;55.60;;;;;;4956678;28;20447;-66
2022/11/21 10:52:28;;;;;;;3.40;0.98;;;11.10;56.30;;;;;;4955607;29;20201;-66
2022/11/21 10:55:09;;;;;;;1.75;0.70;;;10.80;57.70;;;;;;4956012;29;20250;-66
2022/11/21 10:57:44;;;;;;;2.00;0.70;;;10.50;58.70;;;;;;4956446;29;20303;-66
2022/11/21 11:00:19;;;;;;;2.30;0.90;;;10.20;58.80;;;;;;4956447;29;20196;-66
2022/11/21 11:03:03;;;;;;;2.20;0.90;;;10.10;59.70;;;;;;4956167;29;20189;-67
2022/11/21 11:05:32;;;;;;;2.30;1.05;;;10.30;61.30;;;;;;4956294;29;20695;-66
2022/11/21 11:08:01;;;;;;;3.13;1.35;;;10.30;61.90;;;;;;4956179;29;20198;-66
2022/11/21 11:10:29;;;;;;;4.28;1.60;;;10.30;60.40;;;;;;4956156;29;20250;-66
2022/11/21 11:16:03;;;;;;;4.78;1.10;;;10.10;61.30;;;;;;4956184;29;20210;-66
2022/11/21 11:18:32;;;;;;;2.63;1.00;;;9.90;63.30;;;;;;4956071;29;20261;-66
2022/11/21 11:21:19;;;;;;;5.63;1.15;;;9.80;64.40;;;;;;4955811;29;20226;-66
2022/11/21 11:23:47;;;;;;;3.90;0.80;;;9.60;65.50;;;;;;4956215;29;20193;-66
2022/11/21 11:26:32;;;;;;;1.80;0.80;;;9.40;66.00;;;;;;4955965;29;20272;-66
2022/11/21 11:29:09;;;;;;;3.35;0.88;;;9.30;67.40;;;;;;4955999;29;20272;-66
2022/11/21 11:31:44;;;;;;;3.35;0.85;;;9.60;69.00;;;;;;4956075;29;20252;-66
2022/11/21 11:34:14;;;;;;;2.30;0.90;;;9.90;68.10;;;;;;4955490;29;20219;-66
2022/11/21 11:36:54;;;;;;;3.55;0.80;;;10.00;65.10;;;;;;4955469;29;20651;-66
2022/11/21 11:39:35;;;;;;;1.67;0.80;;;10.10;65.40;;;;;;4955601;29;20521;-66
2022/11/21 11:48:02;;;;;;;2.25;1.42;;;10.10;65.20;;;;;;4955739;29;20193;-66
2022/11/21 11:50:33;;;;;;;2.92;1.15;;;9.90;64.20;;;;;;4955468;29;20213;-67
2022/11/21 11:53:08;;;;;;;3.10;1.30;;;9.70;65.80;;;;;;4955399;29;20534;-66
2022/11/21 11:55:40;;;;;;;2.50;1.20;;;9.70;65.70;;;;;;4955432;29;20197;-66
2022/11/21 11:58:16;;;;;;;3.38;1.40;;;9.40;66.20;;;;;;4955166;29;20197;-67
2022/11/21 12:00:50;;;;;;;3.15;1.50;;;9.40;67.40;;;;;;4955466;29;20217;-66
2022/11/21 12:03:20;;;;;;;4.68;1.67;;;9.90;70.60;;;;;;4954920;28;20252;-66
2022/11/21 12:05:58;;;;;;;3.03;1.45;;;11.00;67.60;;;;;;4954990;29;20197;-66
2022/11/21 12:08:34;;;;;;;3.47;1.58;;;12.30;63.80;;;;;;4955275;29;20196;-66
2022/11/21 12:13:56;;;;;;;2.20;1.07;;;14.70;57.10;;;;;;4954726;29;20445;-66
2022/11/21 12:16:26;;;;;;;4.50;1.00;;;15.40;52.20;;;;;;4954634;29;20442;-66
2022/11/21 12:19:00;;;;;;;3.50;1.20;;;15.70;52.20;;;;;;4954514;29;20505;-66
2022/11/21 12:21:27;;;;;;;2.77;1.10;;;15.80;50.40;;;;;;4954836;29;20575;-66
2022/11/21 12:23:56;;;;;;;3.10;1.80;;;15.80;49.70;;;;;;4954119;29;20445;-66
2022/11/21 12:26:36;;;;;;;1.97;0.80;;;15.60;49.10;;;;;;4954343;29;20504;-67
2022/11/21 12:29:14;;;;;;;2.50;1.13;;;15.70;49.10;;;;;;4954356;29;20449;-67
2022/11/21 12:31:57;;;;;;;2.13;1.00;;;15.60;48.10;;;;;;4950953;29;20528;-67
2022/11/21 12:34:38;;;;;;;2.97;1.30;;;15.40;48.50;;;;;;4952223;29;20449;-66
2022/11/21 12:37:15;;;;;;;2.00;0.87;;;15.30;48.10;;;;;;4953866;29;20544;-66
2022/11/21 12:40:03;;;;;;;2.60;1.53;;;15.40;48.30;;;;;;4953607;29;20773;-67
2022/11/21 12:42:49;;;;;;;3.70;1.40;;;15.80;49.20;;;;;;4953296;29;20508;-66
2022/11/21 12:45:30;;;;;;;2.77;0.90;;;16.20;47.70;;;;;;4953882;29;20943;-67
2022/11/21 12:55:01;;;;;;;2.50;1.17;;;16.50;46.10;;;;;;4934794;29;20421;-68
2022/11/21 12:57:36;;;;;;;3.83;1.27;;;16.00;45.30;;;;;;4939824;29;20509;-67
2022/11/21 13:00:14;;;;;;;3.40;1.00;;;15.30;45.30;;;;;;4953432;29;20437;-67
2022/11/21 13:03:00;;;;;;;3.93;1.30;;;14.70;47.50;;;;;;4950821;29;20485;-68
2022/11/21 13:05:32;;;;;;;2.30;1.17;;;14.30;48.10;;;;;;4933617;29;20514;-67
2022/11/21 13:08:06;;;;;;;2.33;1.10;;;13.90;49.40;;;;;;4934163;29;20443;-67
2022/11/21 13:10:34;;;;;;;3.10;1.30;;;13.50;49.80;;;;;;4933670;29;20458;-67
2022/11/21 13:13:14;;;;;;;3.80;1.13;;;13.20;50.40;;;;;;4934558;29;20446;-67
2022/11/21 13:15:55;;;;;;;5.50;1.27;;;12.90;50.80;;;;;;4938385;29;20532;-67
2022/11/21 13:18:28;;;;;;;3.07;1.37;;;12.60;51.70;;;;;;4938862;29;20999;-67
2022/11/21 13:20:57;;;;;;;3.00;1.73;;;12.30;52.90;;;;;;4938843;29;20473;-67
2022/11/21 13:23:41;;;;;;;3.40;1.10;;;12.10;52.70;;;;;;4939097;29;20449;-67
2022/11/21 13:26:51;;;;;;;2.93;1.10;;;11.90;54.90;;;;;;4938986;29;20448;-67
2022/11/21 13:29:18;;;;;;;2.93;1.20;;;11.80;54.20;;;;;;4934455;29;21109;-67
2022/11/21 13:31:46;;;;;;;2.83;1.10;;;11.70;55.10;;;;;;4938833;29;20500;-67
2022/11/21 13:34:36;;;;;;;3.97;1.60;;;11.80;56.60;;;;;;4938456;29;20226;-67
2022/11/21 13:37:10;;;;;;;3.40;1.93;;;12.10;55.90;;;;;;4938378;29;20542;-67
2022/11/21 13:39:42;;;;;;;4.70;1.70;;;12.20;55.30;;;;;;4938267;29;20446;-67
2022/11/21 13:45:42;;;;;;;2.60;1.10;;;12.00;56.00;;;;;;4938889;29;20656;-67
2022/11/21 13:48:38;;;;;;;2.58;1.23;;;11.60;55.30;;;;;;4938239;29;20231;-67